createdAt,value
2017-02-28T00:01:49.760Z,5.18
2017-02-28T00:04:17.391Z,5.16
2017-02-28T00:06:24.586Z,5.18
2017-02-28T00:08:26.806Z,5.2
2017-02-28T00:10:34.053Z,5.23
2017-02-28T00:12:41.242Z,5.31
2017-02-28T00:14:43.431Z,5.39
2017-02-28T00:16:35.800Z,5.48
2017-02-28T00:18:23.245Z,5.58
2017-02-28T00:20:25.669Z,5.69
2017-02-28T00:22:23.045Z,5.75
2017-02-28T00:24:25.275Z,5.73
2017-02-28T00:26:12.691Z,5.64
2017-02-28T00:28:10.011Z,5.54
2017-02-28T00:30:12.404Z,5.5
2017-02-28T00:32:14.660Z,5.5
2017-02-28T00:34:17.148Z,5.52
2017-02-28T00:36:14.408Z,5.52
2017-02-28T00:38:16.782Z,5.5
2017-02-28T00:40:23.943Z,5.47
2017-02-28T00:42:26.305Z,5.46
2017-02-28T00:44:13.680Z,5.48
2017-02-28T00:45:56.270Z,5.5
2017-02-28T00:47:58.611Z,5.52
2017-02-28T00:49:56.091Z,5.49
2017-02-28T00:51:53.491Z,5.43
2017-02-28T00:54:01.080Z,5.32
2017-02-28T00:56:03.840Z,5.24
2017-02-28T00:58:16.068Z,5.17
2017-02-28T01:00:08.442Z,5.13
2017-02-28T01:02:20.653Z,5.11
2017-02-28T01:04:08.021Z,5.13
2017-02-28T01:06:05.571Z,5.18
2017-02-28T01:08:13.041Z,5.24
2017-02-28T01:10:10.376Z,5.28
2017-02-28T01:12:12.801Z,5.41
2017-02-28T01:14:15.460Z,5.52
2017-02-28T01:16:22.719Z,5.62
2017-02-28T01:18:15.083Z,5.69
2017-02-28T01:20:17.421Z,5.74
2017-02-28T01:22:04.768Z,5.79
2017-02-28T01:23:57.159Z,5.84
2017-02-28T01:25:54.442Z,5.89
2017-02-28T01:28:06.613Z,5.97
2017-02-28T01:30:03.904Z,6.06
2017-02-28T01:32:11.713Z,6.1
2017-02-28T01:34:14.253Z,6.14
2017-02-28T01:36:21.801Z,6.18
2017-02-28T01:38:19.050Z,6.19
2017-02-28T01:40:11.513Z,6.19
2017-02-28T01:42:09.004Z,6.18
2017-02-28T01:44:16.380Z,6.16
2017-02-28T01:46:18.671Z,6.15
2017-02-28T01:48:25.988Z,6.15
2017-02-28T01:50:33.400Z,6.17
2017-02-28T01:52:30.690Z,6.2
2017-02-28T01:54:28.143Z,6.22
2017-02-28T01:56:25.366Z,6.25
2017-02-28T01:58:32.739Z,6.28
2017-02-28T02:00:44.932Z,6.29
2017-02-28T02:02:52.366Z,6.29
2017-02-28T02:04:49.842Z,6.22
2017-02-28T02:06:47.230Z,6.12
2017-02-28T02:08:34.684Z,6.04
2017-02-28T02:10:36.847Z,5.96
2017-02-28T02:12:44.009Z,5.89
2017-02-28T02:14:41.425Z,5.88
2017-02-28T02:16:43.598Z,5.88
2017-02-28T02:18:40.865Z,5.94
2017-02-28T02:20:43.408Z,6.01
2017-02-28T02:22:40.786Z,6.04
2017-02-28T02:24:38.124Z,6.08
2017-02-28T02:26:25.586Z,6.16
2017-02-28T02:28:22.865Z,6.27
2017-02-28T02:30:20.199Z,6.36
2017-02-28T02:32:17.481Z,6.47
2017-02-28T02:34:09.674Z,6.57
2017-02-28T02:36:16.892Z,6.7
2017-02-28T02:38:14.448Z,6.76
2017-02-28T02:40:21.994Z,6.78
2017-02-28T02:42:24.588Z,6.83
2017-02-28T02:44:12.180Z,6.89
2017-02-28T02:45:59.463Z,6.94
2017-02-28T02:48:01.750Z,7.02
2017-02-28T02:50:08.958Z,7.1
2017-02-28T02:52:11.325Z,7.19
2017-02-28T02:54:08.618Z,7.25
2017-02-28T02:56:15.879Z,7.29
2017-02-28T02:58:13.095Z,7.33
2017-02-28T03:00:10.372Z,7.38
2017-02-28T03:02:17.833Z,-141.38
2017-02-28T03:04:15.111Z,7.53
2017-02-28T03:06:02.406Z,7.56
2017-02-28T03:08:09.853Z,7.61
2017-02-28T03:10:02.256Z,7.66
2017-02-28T03:11:59.692Z,7.71
2017-02-28T03:13:57.161Z,7.73
2017-02-28T03:15:54.481Z,7.73
2017-02-28T03:18:07.088Z,7.73
2017-02-28T03:19:59.488Z,7.75
2017-02-28T03:22:01.690Z,7.74
2017-02-28T03:23:59.027Z,7.75
2017-02-28T03:25:51.307Z,7.76
2017-02-28T03:27:58.732Z,7.76
2017-02-28T03:30:00.920Z,7.74
2017-02-28T03:32:13.312Z,7.72
2017-02-28T03:34:10.654Z,7.68
2017-02-28T03:36:12.886Z,7.68
2017-02-28T03:38:15.203Z,7.68
2017-02-28T03:40:12.643Z,7.65
2017-02-28T03:42:10.072Z,7.61
2017-02-28T03:44:07.291Z,7.58
2017-02-28T03:46:19.621Z,7.55
2017-02-28T03:48:26.890Z,7.53
2017-02-28T03:50:34.436Z,7.51
2017-02-28T03:52:47.029Z,7.43
2017-02-28T03:54:49.535Z,7.31
2017-02-28T03:56:51.921Z,7.25
2017-02-28T03:58:54.268Z,7.16
2017-02-28T04:00:56.708Z,7
2017-02-28T04:02:58.997Z,6.84
2017-02-28T04:05:05.137Z,6.81
2017-02-28T04:06:57.475Z,6.84
2017-02-28T04:09:04.848Z,6.89
2017-02-28T04:11:12.197Z,6.95
2017-02-28T04:13:04.462Z,7
2017-02-28T04:15:11.619Z,7.08
2017-02-28T04:17:08.880Z,7.14
2017-02-28T04:19:16.173Z,7.23
2017-02-28T04:21:18.560Z,7.35
2017-02-28T04:23:25.962Z,7.45
2017-02-28T04:25:33.233Z,7.55
2017-02-28T04:27:36.120Z,7.66
2017-02-28T04:29:28.356Z,7.73
2017-02-28T04:31:15.932Z,7.77
2017-02-28T04:33:13.233Z,7.82
2017-02-28T04:35:10.641Z,7.9
2017-02-28T04:36:57.985Z,7.99
2017-02-28T04:39:00.408Z,8.05
2017-02-28T04:41:12.877Z,8.06
2017-02-28T04:43:10.217Z,8
2017-02-28T04:45:17.607Z,7.9
2017-02-28T04:47:15.013Z,7.82
2017-02-28T04:49:07.402Z,7.74
2017-02-28T04:51:09.679Z,7.63
2017-02-28T04:53:16.929Z,7.53
2017-02-28T04:55:09.248Z,7.46
2017-02-28T04:57:06.542Z,7.41
2017-02-28T04:59:03.987Z,7.41
2017-02-28T05:00:56.547Z,7.4
2017-02-28T05:02:59.145Z,7.37
2017-02-28T05:05:01.478Z,7.31
2017-02-28T05:07:03.890Z,7.22
2017-02-28T05:09:01.270Z,7.15
2017-02-28T05:10:58.613Z,7.11
2017-02-28T05:13:11.069Z,7.09
2017-02-28T05:14:58.418Z,7.08
2017-02-28T05:16:50.760Z,7.08
2017-02-28T05:18:53.165Z,7.1
2017-02-28T05:20:55.561Z,7.16
2017-02-28T05:22:52.872Z,7.23
2017-02-28T05:24:55.266Z,7.28
2017-02-28T05:26:52.500Z,7.31
2017-02-28T05:28:59.961Z,7.34
2017-02-28T05:30:57.406Z,7.35
2017-02-28T05:33:04.672Z,7.34
2017-02-28T05:34:56.984Z,7.33
2017-02-28T05:36:54.690Z,7.29
2017-02-28T05:38:57.746Z,7.22
2017-02-28T05:40:55.066Z,7.11
2017-02-28T05:42:52.454Z,6.99
2017-02-28T05:44:44.742Z,6.86
2017-02-28T05:46:52.206Z,6.72
2017-02-28T05:48:49.530Z,6.6
2017-02-28T05:50:51.766Z,6.49
2017-02-28T05:52:49.180Z,6.39
2017-02-28T05:54:57.189Z,6.28
2017-02-28T05:56:49.511Z,6.21
2017-02-28T05:58:36.988Z,6.12
2017-02-28T06:00:39.412Z,6.02
2017-02-28T06:02:31.736Z,5.94
2017-02-28T06:04:34.175Z,5.88
2017-02-28T06:06:31.392Z,5.81
2017-02-28T06:08:28.570Z,5.77
2017-02-28T06:10:30.909Z,5.73
2017-02-28T06:12:33.767Z,5.71
2017-02-28T06:14:31.002Z,5.69
2017-02-28T06:16:33.356Z,5.68
2017-02-28T06:18:30.642Z,5.65
2017-02-28T06:20:17.904Z,5.59
2017-02-28T06:22:15.068Z,5.52
2017-02-28T06:24:12.385Z,5.46
2017-02-28T06:26:14.602Z,5.44
2017-02-28T06:28:22.051Z,5.4
2017-02-28T06:30:19.770Z,5.36
2017-02-28T06:32:02.448Z,5.32
2017-02-28T06:34:14.936Z,5.29
2017-02-28T06:36:17.415Z,5.27
2017-02-28T06:38:24.842Z,5.26
2017-02-28T06:40:36.974Z,5.2
2017-02-28T06:42:39.299Z,5.14
2017-02-28T06:44:36.801Z,5.06
2017-02-28T06:46:36.329Z,5.01
2017-02-28T06:48:29.176Z,4.96
2017-02-28T06:50:31.504Z,4.92
2017-02-28T06:52:33.917Z,4.83
2017-02-28T06:54:36.124Z,4.76
2017-02-28T06:56:33.340Z,4.69
2017-02-28T06:58:35.594Z,4.6
2017-02-28T07:00:32.823Z,4.52
2017-02-28T07:02:30.106Z,4.47
2017-02-28T07:04:42.270Z,4.39
2017-02-28T07:06:39.520Z,4.34
2017-02-28T07:08:41.867Z,4.3
2017-02-28T07:10:49.310Z,4.26
2017-02-28T07:12:41.938Z,4.26
2017-02-28T07:14:44.128Z,4.26
2017-02-28T07:16:36.509Z,4.25
2017-02-28T07:18:28.853Z,4.24
2017-02-28T07:20:31.460Z,4.24
2017-02-28T07:22:28.952Z,4.24
2017-02-28T07:24:36.290Z,4.25
2017-02-28T07:26:33.749Z,4.25
2017-02-28T07:28:31.334Z,4.23
2017-02-28T07:30:38.703Z,4.21
2017-02-28T07:32:45.929Z,4.17
2017-02-28T07:34:48.331Z,4.12
2017-02-28T07:36:50.535Z,4.1
2017-02-28T07:38:52.988Z,4.05
2017-02-28T07:40:50.401Z,4.03
2017-02-28T07:43:03.836Z,4.03
2017-02-28T07:45:06.442Z,4.02
2017-02-28T07:47:13.991Z,4
2017-02-28T07:49:11.314Z,4
2017-02-28T07:51:04.199Z,3.99
2017-02-28T07:53:04.903Z,3.98
2017-02-28T07:55:13.670Z,3.98
2017-02-28T07:57:17.870Z,3.96
2017-02-28T07:59:05.625Z,3.95
2017-02-28T08:01:03.263Z,3.95
2017-02-28T08:03:20.877Z,3.94
2017-02-28T08:05:23.314Z,3.94
2017-02-28T08:07:26.320Z,3.97
2017-02-28T08:09:41.225Z,3.97
2017-02-28T08:11:33.616Z,3.99
2017-02-28T08:13:31.646Z,4.01
2017-02-28T08:15:36.384Z,4.02
2017-02-28T08:17:34.556Z,4.02
2017-02-28T08:19:38.555Z,4
2017-02-28T08:21:36.264Z,3.98
2017-02-28T08:23:34.649Z,3.99
2017-02-28T08:25:37.382Z,4
2017-02-28T08:27:34.935Z,4.02
2017-02-28T08:29:22.648Z,4.02
2017-02-28T08:31:35.200Z,4.03
2017-02-28T08:33:33.780Z,4.05
2017-02-28T08:35:37.584Z,4.07
2017-02-28T08:37:41.088Z,4.1
2017-02-28T08:39:43.612Z,4.13
2017-02-28T08:41:58.176Z,4.13
2017-02-28T08:44:00.770Z,4.13
2017-02-28T08:46:08.025Z,4.12
2017-02-28T08:48:30.782Z,4.12
2017-02-28T08:50:48.978Z,4.13
2017-02-28T08:52:41.481Z,4.15
2017-02-28T08:54:44.781Z,4.18
2017-02-28T08:56:37.317Z,4.19
2017-02-28T08:58:39.627Z,4.23
2017-02-28T09:00:39.203Z,4.28
2017-02-28T09:02:42.127Z,4.33
2017-02-28T09:04:49.700Z,4.4
2017-02-28T09:06:42.023Z,4.46
2017-02-28T09:08:44.569Z,4.52
2017-02-28T09:10:46.993Z,4.54
2017-02-28T09:12:54.605Z,4.58
2017-02-28T09:14:52.051Z,4.62
2017-02-28T09:16:49.399Z,4.68
2017-02-28T09:18:41.739Z,4.7
2017-02-28T09:20:49.130Z,4.73
2017-02-28T09:22:51.516Z,4.73
2017-02-28T09:24:43.790Z,4.73
2017-02-28T09:26:41.087Z,4.72
2017-02-28T09:28:38.356Z,4.71
2017-02-28T09:30:36.718Z,4.69
2017-02-28T09:32:24.082Z,4.72
2017-02-28T09:34:31.417Z,4.79
2017-02-28T09:36:38.930Z,4.8
2017-02-28T09:38:51.435Z,4.79
2017-02-28T09:40:58.792Z,4.79
2017-02-28T09:43:01.192Z,4.78
2017-02-28T09:45:01.720Z,4.77
2017-02-28T09:47:14.255Z,4.78
2017-02-28T09:49:26.608Z,4.8
2017-02-28T09:51:34.082Z,4.88
2017-02-28T09:53:36.299Z,4.99
2017-02-28T09:55:38.572Z,5.1
2017-02-28T09:57:31.166Z,5.2
2017-02-28T09:59:28.488Z,5.25
2017-02-28T10:01:53.170Z,5.3
2017-02-28T10:03:57.832Z,5.33
2017-02-28T10:05:56.173Z,5.35
2017-02-28T10:07:58.495Z,5.36
2017-02-28T10:09:50.837Z,5.39
2017-02-28T10:11:58.154Z,5.45
2017-02-28T10:13:50.646Z,5.52
2017-02-28T10:15:58.019Z,5.58
2017-02-28T10:17:50.509Z,5.63
2017-02-28T10:19:53.038Z,5.67
2017-02-28T10:22:05.506Z,5.74
2017-02-28T10:24:02.971Z,5.84
2017-02-28T10:26:00.633Z,5.9
2017-02-28T10:28:03.022Z,5.96
2017-02-28T10:29:55.629Z,6
2017-02-28T10:32:03.153Z,6.05
2017-02-28T10:34:11.479Z,6.12
2017-02-28T10:36:13.889Z,6.2
2017-02-28T10:38:16.661Z,6.3
2017-02-28T10:40:14.144Z,6.34
2017-02-28T10:42:21.661Z,6.4
2017-02-28T10:44:18.991Z,6.42
2017-02-28T10:46:26.439Z,6.43
2017-02-28T10:48:23.967Z,6.41
2017-02-28T10:50:36.371Z,6.41
2017-02-28T10:52:38.797Z,6.43
2017-02-28T10:54:43.988Z,6.45
2017-02-28T10:56:36.453Z,6.44
2017-02-28T10:58:38.880Z,6.43
2017-02-28T11:00:31.394Z,6.4
2017-02-28T11:02:24.239Z,6.36
2017-02-28T11:04:32.104Z,6.37
2017-02-28T11:06:34.485Z,6.39
2017-02-28T11:08:36.857Z,6.4
2017-02-28T11:10:25.498Z,6.42
2017-02-28T11:12:29.097Z,6.46
2017-02-28T11:14:37.466Z,6.52
2017-02-28T11:16:34.890Z,6.55
2017-02-28T11:18:37.291Z,6.6
2017-02-28T11:20:39.708Z,6.64
2017-02-28T11:22:32.274Z,6.63
2017-02-28T11:24:34.756Z,6.62
2017-02-28T11:26:32.240Z,6.69
2017-02-28T11:28:30.576Z,6.74
2017-02-28T11:30:28.086Z,6.8
2017-02-28T11:32:30.479Z,6.81
2017-02-28T11:34:27.810Z,6.77
2017-02-28T11:36:30.378Z,6.77
2017-02-28T11:38:42.825Z,6.69
2017-02-28T11:40:50.398Z,6.63
2017-02-28T11:42:34.139Z,6.62
2017-02-28T11:44:46.706Z,6.61
2017-02-28T11:46:59.122Z,6.66
2017-02-28T11:48:56.632Z,6.71
2017-02-28T11:50:49.016Z,6.78
2017-02-28T11:52:51.347Z,6.81
2017-02-28T11:54:48.723Z,6.83
2017-02-28T11:56:56.128Z,6.9
2017-02-28T11:58:43.577Z,6.93
2017-02-28T12:00:40.990Z,6.91
2017-02-28T12:02:48.269Z,6.88
2017-02-28T12:04:50.681Z,6.84
2017-02-28T12:06:53.002Z,6.81
2017-02-28T12:08:50.423Z,6.89
2017-02-28T12:10:52.932Z,6.99
2017-02-28T12:12:55.525Z,7.11
2017-02-28T12:14:48.209Z,7.21
2017-02-28T12:16:46.641Z,7.26
2017-02-28T12:18:44.988Z,7.16
2017-02-28T12:20:42.360Z,7.02
2017-02-28T12:22:52.026Z,6.86
2017-02-28T12:25:03.291Z,6.7
2017-02-28T12:27:07.451Z,6.61
2017-02-28T12:29:05.072Z,6.57
2017-02-28T12:30:57.493Z,6.54
2017-02-28T12:32:59.776Z,6.52
2017-02-28T12:34:57.124Z,6.56
2017-02-28T12:36:59.677Z,6.69
2017-02-28T12:38:57.239Z,6.81
2017-02-28T12:41:06.146Z,7.06
2017-02-28T12:42:58.756Z,7.31
2017-02-28T12:45:06.186Z,7.58
2017-02-28T12:47:03.587Z,7.65
2017-02-28T12:49:01.221Z,7.69
2017-02-28T12:51:08.548Z,7.72
2017-02-28T12:53:06.044Z,7.62
2017-02-28T12:55:08.418Z,7.52
2017-02-28T12:57:01.250Z,7.63
2017-02-28T12:59:13.570Z,7.91
2017-02-28T13:01:00.886Z,8.24
2017-02-28T13:03:03.262Z,8.6
2017-02-28T13:05:05.471Z,8.92
2017-02-28T13:07:12.666Z,8.69
2017-02-28T13:09:15.159Z,8.2
2017-02-28T13:11:22.577Z,7.94
2017-02-28T13:13:14.899Z,8.06
2017-02-28T13:15:22.145Z,7.88
2017-02-28T13:17:19.503Z,7.96
2017-02-28T13:19:21.980Z,7.9
2017-02-28T13:21:19.291Z,7.65
2017-02-28T13:23:16.524Z,7.69
2017-02-28T13:25:19.051Z,8.16
2017-02-28T13:27:21.434Z,8.75
2017-02-28T13:29:23.948Z,8.86
2017-02-28T13:31:26.493Z,8.94
2017-02-28T13:33:18.854Z,9.14
2017-02-28T13:35:16.231Z,9.22
2017-02-28T13:37:08.628Z,9.24
2017-02-28T13:39:11.026Z,9.3
2017-02-28T13:41:03.566Z,9.47
2017-02-28T13:42:50.830Z,9.58
2017-02-28T13:44:53.055Z,9.5
2017-02-28T13:47:00.554Z,9.33
2017-02-28T13:49:03.013Z,9.35
2017-02-28T13:51:00.345Z,9.4
2017-02-28T13:53:07.774Z,9.3
2017-02-28T13:55:05.038Z,9.1
2017-02-28T13:57:02.480Z,8.91
2017-02-28T13:58:59.813Z,8.63
2017-02-28T14:01:07.187Z,8.28
2017-02-28T14:03:09.593Z,8.04
2017-02-28T14:05:11.907Z,7.98
2017-02-28T14:07:14.515Z,8.04
2017-02-28T14:09:22.044Z,8.27
2017-02-28T14:11:29.558Z,8.43
2017-02-28T14:13:31.941Z,8.6
2017-02-28T14:15:29.528Z,8.87
2017-02-28T14:17:36.882Z,9.16
2017-02-28T14:19:52.992Z,9.45
2017-02-28T14:22:00.240Z,9.64
2017-02-28T14:24:10.931Z,9.77
2017-02-28T14:26:21.157Z,9.81
2017-02-28T14:28:40.206Z,9.77
2017-02-28T14:30:27.640Z,9.65
2017-02-28T14:32:30.211Z,9.49
2017-02-28T14:34:27.577Z,9.25
2017-02-28T14:36:24.955Z,8.98
2017-02-28T14:38:27.323Z,8.75
2017-02-28T14:40:30.006Z,8.6
2017-02-28T14:42:32.651Z,8.44
2017-02-28T14:44:30.040Z,8.24
2017-02-28T14:46:27.337Z,8.06
2017-02-28T14:48:34.535Z,7.92
2017-02-28T14:50:22.248Z,7.82
2017-02-28T14:52:14.508Z,7.74
2017-02-28T14:54:11.861Z,7.69
2017-02-28T14:56:09.245Z,7.68
2017-02-28T14:58:01.595Z,7.66
2017-02-28T15:00:09.113Z,7.61
2017-02-28T15:02:16.512Z,7.56
2017-02-28T15:04:29.099Z,7.58
2017-02-28T15:06:31.527Z,7.59
2017-02-28T15:08:29.135Z,7.56
2017-02-28T15:10:26.593Z,7.51
2017-02-28T15:12:24.301Z,7.43
2017-02-28T15:14:11.694Z,7.35
2017-02-28T15:16:09.076Z,7.27
2017-02-28T15:18:06.554Z,7.26
2017-02-28T15:19:53.908Z,7.26
2017-02-28T15:21:46.216Z,7.22
2017-02-28T15:23:48.635Z,7.25
2017-02-28T15:25:41.049Z,7.3
2017-02-28T15:27:43.399Z,7.35
2017-02-28T15:29:40.854Z,7.42
2017-02-28T15:31:43.345Z,7.47
2017-02-28T15:33:40.677Z,7.51
2017-02-28T15:35:48.213Z,7.58
2017-02-28T15:37:35.769Z,7.67
2017-02-28T15:39:38.268Z,7.67
2017-02-28T15:41:20.678Z,7.65
2017-02-28T15:43:17.963Z,7.58
2017-02-28T15:45:10.263Z,7.46
2017-02-28T15:47:17.678Z,7.38
2017-02-28T15:49:15.236Z,7.34
2017-02-28T15:51:22.563Z,7.33
2017-02-28T15:53:30.008Z,7.32
2017-02-28T15:55:32.505Z,7.33
2017-02-28T15:57:40.141Z,7.34
2017-02-28T15:59:47.453Z,7.34
2017-02-28T16:01:45.070Z,7.34
2017-02-28T16:03:47.583Z,7.31
2017-02-28T16:05:49.956Z,7.28
2017-02-28T16:07:52.330Z,7.3
2017-02-28T16:09:59.925Z,7.3
2017-02-28T16:12:02.357Z,7.3
2017-02-28T16:13:59.700Z,7.26
2017-02-28T16:15:47.356Z,7.22
2017-02-28T16:17:54.753Z,7.2
2017-02-28T16:19:47.214Z,7.17
2017-02-28T16:21:44.787Z,7.15
2017-02-28T16:23:47.063Z,7.14
2017-02-28T16:25:44.375Z,7.14
2017-02-28T16:27:47.040Z,7.12
2017-02-28T16:29:44.322Z,7.08
2017-02-28T16:31:36.761Z,7.02
2017-02-28T16:33:39.178Z,6.93
2017-02-28T16:35:31.467Z,6.82
2017-02-28T16:37:33.809Z,6.7
2017-02-28T16:39:41.134Z,6.62
2017-02-28T16:41:38.534Z,6.56
2017-02-28T16:43:35.972Z,6.51
2017-02-28T16:45:33.354Z,6.49
2017-02-28T16:47:41.749Z,6.47
2017-02-28T16:49:44.229Z,6.53
2017-02-28T16:51:46.646Z,6.52
2017-02-28T16:53:49.224Z,-141.38
2017-02-28T16:55:46.616Z,-141.38
2017-02-28T16:57:49.193Z,-141.38
2017-02-28T16:59:51.561Z,-141.38
2017-02-28T17:01:58.876Z,-141.38
2017-02-28T17:03:51.536Z,-141.38
2017-02-28T17:05:59.015Z,-141.38
2017-02-28T17:08:01.510Z,-141.38
2017-02-28T17:10:13.948Z,-141.38
2017-02-28T17:12:06.400Z,-141.38
2017-02-28T17:13:53.985Z,-141.38
2017-02-28T17:15:51.470Z,-141.38
2017-02-28T17:17:53.892Z,-141.38
2017-02-28T17:20:01.798Z,-141.38
2017-02-28T17:22:04.085Z,-141.38
2017-02-28T17:24:01.527Z,-141.38
2017-02-28T17:25:54.061Z,-141.38
2017-02-28T17:28:01.407Z,-141.38
2017-02-28T17:29:48.754Z,-141.38
2017-02-28T17:31:56.219Z,-141.38
2017-02-28T17:33:48.744Z,-141.38
2017-02-28T17:35:56.030Z,-141.38
2017-02-28T17:37:58.480Z,-141.38
2017-02-28T17:39:45.911Z,-141.38
2017-02-28T17:41:48.303Z,-141.38
2017-02-28T17:43:50.852Z,-141.38
2017-02-28T17:45:43.762Z,-141.38
2017-02-28T17:47:42.135Z,-141.38
2017-02-28T17:49:39.803Z,-141.38
2017-02-28T17:51:53.021Z,-141.38
2017-02-28T17:53:47.581Z,-141.38
2017-02-28T17:56:00.270Z,-141.38
2017-02-28T17:58:07.582Z,-141.38
2017-02-28T18:00:09.991Z,-141.38
2017-02-28T18:02:02.622Z,-141.38
2017-02-28T18:04:08.088Z,-141.38
2017-02-28T18:05:55.605Z,-141.38
2017-02-28T18:07:53.061Z,-141.38
2017-02-28T18:09:45.528Z,-141.38
2017-02-28T18:11:53.243Z,-141.38
2017-02-28T18:13:49.038Z,-141.38
2017-02-28T18:15:46.383Z,-141.38
2017-02-28T18:17:54.689Z,-141.38
2017-02-28T18:20:02.553Z,-141.38
2017-02-28T18:22:05.431Z,-141.38
2017-02-28T18:24:02.988Z,-141.38
2017-02-28T18:26:00.702Z,-141.38
2017-02-28T18:28:03.423Z,-141.38
2017-02-28T18:30:05.990Z,-141.38
2017-02-28T18:32:03.482Z,-141.38
2017-02-28T18:34:16.138Z,-141.38
2017-02-28T18:36:23.622Z,-141.38
2017-02-28T18:38:21.254Z,-141.38
2017-02-28T18:40:28.754Z,-141.38
2017-02-28T18:42:26.366Z,-141.38
2017-02-28T18:44:28.925Z,-141.38
2017-02-28T18:46:26.253Z,-141.38
2017-02-28T18:48:18.655Z,-141.38
2017-02-28T18:50:21.261Z,-141.38
2017-02-28T18:52:13.884Z,-141.38
2017-02-28T18:54:21.585Z,-141.38
2017-02-28T18:56:14.356Z,-141.38
2017-02-28T18:58:21.799Z,-141.38
2017-02-28T19:00:09.450Z,-141.38
2017-02-28T19:01:57.213Z,-141.38
2017-02-28T19:04:00.120Z,-141.38
2017-02-28T19:06:02.560Z,-141.38
2017-02-28T19:08:09.987Z,-141.38
2017-02-28T19:10:17.512Z,-141.38
2017-02-28T19:12:20.438Z,-141.38
2017-02-28T19:14:23.265Z,-141.38
2017-02-28T19:16:31.699Z,-141.38
2017-02-28T19:18:29.839Z,-141.38
2017-02-28T19:20:22.403Z,-141.38
2017-02-28T19:22:24.816Z,-141.38
2017-02-28T19:24:32.932Z,-141.38
2017-02-28T19:26:55.747Z,-141.38
2017-02-28T19:29:12.847Z,-141.38
2017-02-28T19:31:25.955Z,-141.38
2017-02-28T19:33:33.326Z,-141.38
2017-02-28T19:35:45.823Z,-141.38
2017-02-28T19:37:38.452Z,-141.38
2017-02-28T19:39:36.045Z,-141.38
2017-02-28T19:41:18.724Z,-141.38
2017-02-28T19:43:01.153Z,-141.38
2017-02-28T19:45:08.526Z,-141.38
2017-02-28T19:47:20.813Z,-141.38
2017-02-28T19:49:33.228Z,-141.38
2017-02-28T19:51:25.836Z,-141.38
2017-02-28T19:53:13.273Z,-141.38
2017-02-28T19:55:15.928Z,-141.38
2017-02-28T19:57:03.477Z,-141.38
2017-02-28T19:59:06.339Z,-141.38
2017-02-28T20:01:03.867Z,-141.38
2017-02-28T20:03:01.486Z,-141.38
2017-02-28T20:05:03.788Z,-141.38
2017-02-28T20:07:11.152Z,-141.38
2017-02-28T20:09:13.488Z,-141.38
2017-02-28T20:11:15.788Z,-141.38
2017-02-28T20:13:28.260Z,-141.38
2017-02-28T20:15:25.978Z,-141.38
2017-02-28T20:17:33.466Z,-141.38
2017-02-28T20:19:36.243Z,-141.38
2017-02-28T20:21:38.708Z,-141.38
2017-02-28T20:23:46.165Z,-141.38
2017-02-28T20:25:38.751Z,-141.38
2017-02-28T20:27:26.388Z,-141.38
2017-02-28T20:29:13.804Z,-141.38
2017-02-28T20:31:17.258Z,-141.38
2017-02-28T20:33:25.578Z,-141.38
2017-02-28T20:35:21.839Z,-141.38
2017-02-28T20:37:29.156Z,-141.38
2017-02-28T20:39:26.570Z,-141.38
2017-02-28T20:41:29.275Z,-141.38
2017-02-28T20:43:26.755Z,-141.38
2017-02-28T20:45:19.189Z,-141.38
2017-02-28T20:47:21.554Z,-141.38
2017-02-28T20:49:23.987Z,-141.38
2017-02-28T20:51:21.509Z,-141.38
2017-02-28T20:53:28.916Z,-141.38
2017-02-28T20:55:41.409Z,-141.38
2017-02-28T20:59:56.751Z,0
2017-02-28T21:01:49.397Z,0
2017-02-28T21:03:46.683Z,0
2017-02-28T21:05:49.056Z,0
2017-02-28T21:07:46.432Z,0
2017-02-28T21:09:44.545Z,0
2017-02-28T21:11:38.527Z,0
2017-02-28T21:13:36.336Z,0
2017-02-28T21:15:48.798Z,0
2017-02-28T21:17:59.148Z,0
2017-02-28T21:20:05.402Z,0
2017-02-28T21:22:01.628Z,0
2017-02-28T21:24:10.605Z,0
2017-02-28T21:26:13.927Z,0
2017-02-28T21:28:13.879Z,0
2017-02-28T21:30:17.936Z,0
2017-02-28T21:32:28.085Z,0
2017-02-28T21:34:26.822Z,0
2017-02-28T21:36:31.621Z,0
2017-02-28T21:38:25.524Z,0
2017-02-28T21:40:30.522Z,0
2017-02-28T21:42:44.178Z,0
2017-02-28T21:44:47.431Z,0
2017-02-28T21:46:48.447Z,0
2017-02-28T21:48:52.451Z,0
2017-02-28T21:51:00.663Z,0
2017-02-28T21:52:54.739Z,0
2017-02-28T21:55:07.953Z,0
2017-02-28T21:57:13.410Z,0
2017-02-28T21:59:21.153Z,0
2017-02-28T22:01:31.680Z,0
2017-02-28T22:03:46.585Z,0
2017-02-28T22:05:46.781Z,0
2017-02-28T22:07:55.140Z,0
2017-02-28T22:10:05.411Z,0
2017-02-28T22:12:11.097Z,0
2017-02-28T22:14:14.140Z,0
2017-02-28T22:16:24.374Z,0
2017-02-28T22:18:25.115Z,0
2017-02-28T22:20:19.713Z,0
2017-02-28T22:22:32.778Z,0
2017-02-28T22:24:43.288Z,0
2017-02-28T22:26:57.086Z,0
2017-02-28T22:28:54.779Z,0
2017-02-28T22:30:52.188Z,0
2017-02-28T22:33:04.736Z,0
2017-02-28T22:34:52.111Z,0
2017-02-28T22:37:00.967Z,0
2017-02-28T22:39:08.423Z,0
2017-02-28T22:40:50.920Z,0
2017-02-28T22:42:53.112Z,0
2017-02-28T22:44:45.390Z,0
2017-02-28T22:46:57.685Z,0
2017-02-28T22:49:05.008Z,0
2017-02-28T22:50:57.610Z,0
2017-02-28T22:53:00.998Z,0
2017-02-28T22:55:03.569Z,0
2017-02-28T22:57:05.917Z,0
2017-02-28T22:59:08.288Z,0
2017-02-28T23:01:02.711Z,0
2017-02-28T23:03:00.103Z,0
2017-02-28T23:05:02.369Z,0
2017-02-28T23:06:54.683Z,0
2017-02-28T23:09:07.009Z,0
2017-02-28T23:11:05.275Z,0
2017-02-28T23:13:12.613Z,0
2017-02-28T23:15:09.809Z,0
2017-02-28T23:17:12.797Z,0
2017-02-28T23:19:10.439Z,0
2017-02-28T23:21:12.797Z,0
2017-02-28T23:23:20.205Z,0
2017-02-28T23:25:07.758Z,0
2017-02-28T23:27:05.083Z,0
2017-02-28T23:29:07.775Z,0
2017-02-28T23:31:15.014Z,0
2017-02-28T23:33:27.769Z,0
2017-02-28T23:35:25.276Z,0
2017-02-28T23:37:22.503Z,0
2017-02-28T23:39:24.720Z,0
2017-02-28T23:41:27.102Z,0
2017-02-28T23:43:24.357Z,0
2017-02-28T23:45:26.705Z,0
2017-02-28T23:47:28.870Z,0
2017-02-28T23:49:36.056Z,0
2017-02-28T23:51:43.233Z,0
2017-02-28T23:53:35.600Z,0
2017-02-28T23:55:32.824Z,0
2017-02-28T23:57:39.989Z,0
2017-02-28T23:59:32.217Z,0
